createdAt,value
2022-08-28T00:02:48.251Z,98902.91
2022-08-28T00:05:52.500Z,98910.63
2022-08-28T00:08:55.677Z,98894.19
2022-08-28T00:11:58.570Z,98907.41
2022-08-28T00:15:01.406Z,98902.88
2022-08-28T00:18:05.157Z,98904.56
2022-08-28T00:21:10.209Z,98907.59
2022-08-28T00:24:13.188Z,98905.94
2022-08-28T00:27:33.799Z,98907.38
2022-08-28T00:30:37.825Z,98904.16
2022-08-28T00:33:40.815Z,98906.09
2022-08-28T00:36:45.042Z,98893.31
2022-08-28T00:39:48.010Z,98897.00
2022-08-28T00:42:51.372Z,98904.56
2022-08-28T00:45:54.208Z,98895.69
2022-08-28T00:48:59.580Z,98903.69
2022-08-28T00:52:12.815Z,98900.25
2022-08-28T00:55:17.069Z,98904.28
2022-08-28T00:58:20.313Z,98897.75
2022-08-28T01:01:23.242Z,98911.63
2022-08-28T01:04:27.042Z,98911.91
2022-08-28T01:07:31.447Z,98900.50
2022-08-28T01:10:36.981Z,98897.00
2022-08-28T01:13:41.285Z,98897.53
2022-08-28T01:16:44.587Z,98903.97
2022-08-28T01:19:52.389Z,98898.78
2022-08-28T01:23:01.640Z,98896.75
2022-08-28T01:26:06.513Z,98889.53
2022-08-28T01:29:15.227Z,98891.88
2022-08-28T01:32:29.542Z,98881.72
2022-08-28T01:35:33.655Z,98879.25
2022-08-28T01:38:36.430Z,98869.75
2022-08-28T01:41:41.791Z,98870.22
2022-08-28T01:44:44.742Z,98863.88
2022-08-28T01:47:48.591Z,98867.88
2022-08-28T01:50:54.913Z,98870.88
2022-08-28T01:53:57.764Z,98869.38
2022-08-28T01:57:02.084Z,98867.03
2022-08-28T02:00:05.324Z,98881.97
2022-08-28T02:03:08.646Z,98889.44
2022-08-28T02:06:11.644Z,98882.28
2022-08-28T02:09:14.949Z,98874.78
2022-08-28T02:12:20.730Z,98885.25
2022-08-28T02:15:25.135Z,98878.09
2022-08-28T02:18:27.976Z,98891.13
2022-08-28T02:21:30.878Z,98888.66
2022-08-28T02:24:33.683Z,98888.53
2022-08-28T02:27:38.096Z,98899.78
2022-08-28T02:30:41.222Z,98895.38
2022-08-28T02:33:45.008Z,98892.56
2022-08-28T02:36:48.055Z,98897.94
2022-08-28T02:39:51.539Z,98894.66
2022-08-28T02:42:55.806Z,98887.94
2022-08-28T02:45:58.814Z,98893.47
2022-08-28T02:49:01.615Z,98894.13
2022-08-28T02:52:04.769Z,98887.00
2022-08-28T02:55:08.107Z,98894.72
2022-08-28T02:58:12.396Z,98893.50
2022-08-28T03:01:15.452Z,98890.59
2022-08-28T03:04:18.503Z,98886.28
2022-08-28T03:07:22.823Z,98888.97
2022-08-28T03:10:25.668Z,98901.66
2022-08-28T03:13:30.221Z,98896.34
2022-08-28T03:16:34.319Z,98908.50
2022-08-28T03:19:37.159Z,98928.72
2022-08-28T03:22:57.575Z,98918.03
2022-08-28T03:26:01.176Z,98913.56
2022-08-28T03:29:05.350Z,98914.66
2022-08-28T03:32:08.193Z,98916.84
2022-08-28T03:35:12.121Z,98928.63
2022-08-28T03:38:14.964Z,98922.66
2022-08-28T03:41:18.959Z,98919.94
2022-08-28T03:44:23.148Z,98935.16
2022-08-28T03:47:28.362Z,98948.41
2022-08-28T03:50:32.547Z,98941.06
2022-08-28T03:53:36.166Z,98931.22
2022-08-28T03:56:42.288Z,98939.75
2022-08-28T03:59:46.470Z,98937.91
2022-08-28T04:02:49.255Z,98949.09
2022-08-28T04:05:52.426Z,98942.41
2022-08-28T04:08:55.880Z,98941.91
2022-08-28T04:12:03.635Z,98941.41
2022-08-28T04:15:08.736Z,98938.03
2022-08-28T04:18:12.219Z,98945.06
2022-08-28T04:21:16.828Z,98952.38
2022-08-28T04:24:19.616Z,98952.84
2022-08-28T04:27:22.421Z,98955.38
2022-08-28T04:30:26.569Z,98955.59
2022-08-28T04:33:29.868Z,98948.75
2022-08-28T04:36:33.688Z,98951.81
2022-08-28T04:39:36.545Z,98956.63
2022-08-28T04:42:40.170Z,98957.50
2022-08-28T04:45:45.088Z,98937.31
2022-08-28T04:48:47.936Z,98965.53
2022-08-28T04:51:50.731Z,98970.81
2022-08-28T04:54:53.634Z,98964.66
2022-08-28T04:57:56.414Z,98962.56
2022-08-28T05:01:06.165Z,98951.91
2022-08-28T05:04:11.408Z,98941.41
2022-08-28T05:07:14.225Z,98947.06
2022-08-28T05:10:17.170Z,98942.72
2022-08-28T05:13:20.841Z,98939.81
2022-08-28T05:16:25.184Z,98935.53
2022-08-28T05:19:28.657Z,98922.22
2022-08-28T05:22:31.796Z,98937.41
2022-08-28T05:25:36.263Z,98947.03
2022-08-28T05:28:39.390Z,98927.44
2022-08-28T05:31:43.637Z,98921.16
2022-08-28T05:34:47.111Z,98921.09
2022-08-28T05:37:50.447Z,98923.34
2022-08-28T05:40:53.278Z,98917.19
2022-08-28T05:43:56.047Z,98914.75
2022-08-28T05:47:00.284Z,98910.63
2022-08-28T05:50:03.316Z,98891.84
2022-08-28T05:53:06.263Z,98904.72
2022-08-28T05:56:09.443Z,98912.31
2022-08-28T05:59:13.029Z,98908.22
2022-08-28T06:02:17.548Z,98905.63
2022-08-28T06:05:20.463Z,98934.09
2022-08-28T06:08:23.706Z,98927.28
2022-08-28T06:11:27.279Z,98934.91
2022-08-28T06:14:33.638Z,98926.53
2022-08-28T06:17:38.817Z,98937.75
2022-08-28T06:20:42.728Z,98937.25
2022-08-28T06:23:45.643Z,98929.25
2022-08-28T06:26:48.532Z,98940.72
2022-08-28T06:29:51.388Z,98970.13
2022-08-28T06:32:55.661Z,98975.47
2022-08-28T06:35:58.583Z,98984.78
2022-08-28T06:39:02.161Z,99001.00
2022-08-28T06:42:05.635Z,99001.97
2022-08-28T06:45:09.145Z,99005.31
2022-08-28T06:48:16.516Z,99015.91
2022-08-28T06:51:20.528Z,99015.69
2022-08-28T06:54:31.004Z,99019.06
2022-08-28T06:57:33.871Z,99020.91
2022-08-28T07:00:38.110Z,99010.00
2022-08-28T07:03:44.268Z,99017.56
2022-08-28T07:06:54.034Z,99038.81
2022-08-28T07:09:57.411Z,99022.88
2022-08-28T07:13:00.975Z,99023.75
2022-08-28T07:16:04.232Z,99024.38
2022-08-28T07:19:10.017Z,99042.44
2022-08-28T07:22:13.520Z,99026.25
2022-08-28T07:25:17.203Z,99021.56
2022-08-28T07:28:21.819Z,99024.41
2022-08-28T07:31:26.645Z,99020.75
2022-08-28T07:34:31.070Z,99000.66
2022-08-28T07:37:33.892Z,98977.28
2022-08-28T07:40:37.886Z,98979.94
2022-08-28T07:43:58.150Z,98979.00
2022-08-28T07:47:02.379Z,98989.97
2022-08-28T07:50:07.219Z,98999.16
2022-08-28T07:53:10.007Z,98997.28
2022-08-28T07:56:13.174Z,98986.44
2022-08-28T07:59:17.579Z,98978.50
2022-08-28T08:02:22.373Z,98981.81
2022-08-28T08:05:26.679Z,98981.47
2022-08-28T08:08:30.231Z,98974.22
2022-08-28T08:11:34.772Z,98960.84
2022-08-28T08:14:38.111Z,98967.75
2022-08-28T08:17:41.322Z,98969.06
2022-08-28T08:20:45.494Z,98953.28
2022-08-28T08:23:49.097Z,98964.50
2022-08-28T08:27:00.331Z,98956.94
2022-08-28T08:30:03.770Z,98942.81
2022-08-28T08:33:07.628Z,98948.72
2022-08-28T08:36:13.319Z,98952.16
2022-08-28T08:39:16.392Z,98948.22
2022-08-28T08:42:25.144Z,98953.16
2022-08-28T08:45:29.595Z,98958.75
2022-08-28T08:48:35.217Z,98948.34
2022-08-28T08:51:41.757Z,98949.38
2022-08-28T08:54:45.821Z,98952.31
2022-08-28T08:57:52.677Z,98961.47
2022-08-28T09:00:59.395Z,98987.69
2022-08-28T09:04:05.215Z,99007.84
2022-08-28T09:07:15.369Z,99013.28
2022-08-28T09:10:18.292Z,99010.03
2022-08-28T09:13:25.606Z,99030.41
2022-08-28T09:16:31.314Z,99030.00
2022-08-28T09:19:34.662Z,99034.03
2022-08-28T09:22:40.272Z,99026.69
2022-08-28T09:25:54.203Z,99053.72
2022-08-28T09:29:01.311Z,99032.22
2022-08-28T09:32:18.063Z,99029.72
2022-08-28T09:35:27.283Z,99009.00
2022-08-28T09:38:32.926Z,99030.41
2022-08-28T09:41:57.248Z,99020.06
2022-08-28T09:45:02.154Z,99017.41
2022-08-28T09:48:20.440Z,99022.53
2022-08-28T09:51:29.334Z,99001.47
2022-08-28T09:54:35.508Z,99000.81
2022-08-28T09:57:38.947Z,98986.59
2022-08-28T10:00:45.003Z,98989.97
2022-08-28T10:03:53.000Z,98993.94
2022-08-28T10:06:59.488Z,98993.97
2022-08-28T10:10:17.069Z,99004.47
2022-08-28T10:13:23.915Z,99000.56
2022-08-28T10:16:32.084Z,99018.38
2022-08-28T10:19:41.312Z,99029.94
2022-08-28T10:22:50.432Z,99029.22
2022-08-28T10:25:58.562Z,99032.56
2022-08-28T10:29:07.989Z,99027.91
2022-08-28T10:32:21.420Z,99020.03
2022-08-28T10:35:25.507Z,99021.09
2022-08-28T10:38:33.927Z,99007.13
2022-08-28T10:41:42.320Z,99011.13
2022-08-28T10:44:50.491Z,98996.09
2022-08-28T10:47:56.816Z,99000.53
2022-08-28T10:51:02.835Z,98999.59
2022-08-28T10:54:08.303Z,98994.03
2022-08-28T10:57:19.050Z,99002.50
2022-08-28T11:00:23.137Z,99006.94
2022-08-28T11:03:35.911Z,99007.41
2022-08-28T11:06:42.733Z,99003.16
2022-08-28T11:09:48.087Z,99001.00
2022-08-28T11:12:53.559Z,98982.88
2022-08-28T11:15:56.416Z,98994.69
2022-08-28T11:19:07.979Z,98986.41
2022-08-28T11:22:12.473Z,98983.91
2022-08-28T11:25:17.424Z,98981.72
2022-08-28T11:28:41.982Z,98972.22
2022-08-28T11:31:44.852Z,98971.41
2022-08-28T11:35:00.114Z,98967.69
2022-08-28T11:38:02.978Z,98958.84
2022-08-28T11:41:11.558Z,98961.41
2022-08-28T11:44:40.471Z,98960.94
2022-08-28T11:47:48.195Z,98956.84
2022-08-28T11:50:54.835Z,98950.81
2022-08-28T11:54:02.804Z,98942.44
2022-08-28T11:57:08.755Z,98947.19
2022-08-28T12:00:24.052Z,98950.00
2022-08-28T12:03:28.650Z,98946.94
2022-08-28T12:06:50.256Z,98938.19
2022-08-28T12:09:53.288Z,98927.44
2022-08-28T12:12:57.200Z,98928.03
2022-08-28T12:16:06.696Z,98923.00
2022-08-28T12:19:10.369Z,98932.00
2022-08-28T12:22:14.080Z,98921.25
2022-08-28T12:25:24.532Z,98910.72
2022-08-28T12:28:31.871Z,98906.19
2022-08-28T12:32:13.604Z,98906.22
2022-08-28T12:35:19.674Z,98893.84
2022-08-28T12:38:26.372Z,98894.78
2022-08-28T12:41:29.312Z,98898.66
2022-08-28T12:44:33.858Z,98897.00
2022-08-28T12:47:37.603Z,98902.38
2022-08-28T12:50:42.296Z,98895.75
2022-08-28T12:53:46.367Z,98907.91
2022-08-28T12:56:49.225Z,98903.19
2022-08-28T12:59:53.544Z,98900.91
2022-08-28T13:02:57.956Z,98898.47
2022-08-28T13:06:04.676Z,98898.66
2022-08-28T13:09:08.955Z,98915.06
2022-08-28T13:12:18.250Z,98911.53
2022-08-28T13:15:36.044Z,98926.31
2022-08-28T13:18:40.973Z,98939.16
2022-08-28T13:21:59.457Z,98955.91
2022-08-28T13:25:02.954Z,98959.28
2022-08-28T13:28:12.659Z,98945.47
2022-08-28T13:31:23.348Z,98941.41
2022-08-28T13:34:27.083Z,98942.47
2022-08-28T13:37:43.588Z,98952.16
2022-08-28T13:41:03.947Z,98937.00
2022-08-28T13:44:07.513Z,98929.69
2022-08-28T13:47:10.418Z,98937.91
2022-08-28T13:50:13.361Z,98939.56
2022-08-28T13:53:18.170Z,98917.13
2022-08-28T13:56:21.908Z,98924.28
2022-08-28T13:59:24.790Z,98929.59
2022-08-28T14:02:45.483Z,98931.25
2022-08-28T14:05:48.526Z,98932.75
2022-08-28T14:08:52.788Z,98921.03
2022-08-28T14:11:56.999Z,98918.06
2022-08-28T14:15:00.126Z,98916.53
2022-08-28T14:18:02.990Z,98901.84
2022-08-28T14:21:06.446Z,98891.38
2022-08-28T14:24:10.936Z,98887.03
2022-08-28T14:27:13.764Z,98902.72
2022-08-28T14:30:17.136Z,98913.88
2022-08-28T14:33:22.143Z,98914.69
2022-08-28T14:36:26.725Z,98936.88
2022-08-28T14:39:32.320Z,98936.97
2022-08-28T14:42:35.175Z,98938.97
2022-08-28T14:45:44.005Z,98951.91
2022-08-28T14:48:50.559Z,98947.03
2022-08-28T14:51:54.233Z,98949.38
2022-08-28T14:54:59.349Z,98935.22
2022-08-28T15:01:05.831Z,98940.66
2022-08-28T15:04:13.784Z,98944.28
2022-08-28T15:07:16.912Z,98932.31
2022-08-28T15:10:24.653Z,98935.06
2022-08-28T15:13:31.439Z,98935.03
2022-08-28T15:16:40.765Z,98902.38
2022-08-28T15:19:43.975Z,98900.69
2022-08-28T15:22:48.610Z,98928.84
2022-08-28T15:26:00.464Z,98925.66
2022-08-28T15:29:03.806Z,98924.41
2022-08-28T15:32:07.803Z,98929.63
2022-08-28T15:35:11.454Z,98936.44
2022-08-28T15:38:14.436Z,98919.88
2022-08-28T15:41:26.810Z,98915.47
2022-08-28T15:44:29.721Z,98928.00
2022-08-28T15:47:32.836Z,98938.88
2022-08-28T15:50:36.325Z,98949.56
2022-08-28T15:53:40.063Z,98969.72
2022-08-28T15:56:44.225Z,98998.47
2022-08-28T15:59:50.630Z,99008.41
2022-08-28T16:02:59.923Z,99016.84
2022-08-28T16:06:03.092Z,99025.59
2022-08-28T16:09:06.573Z,99027.38
2022-08-28T16:12:10.780Z,99048.50
2022-08-28T16:15:16.105Z,99034.31
2022-08-28T16:18:23.599Z,99009.53
2022-08-28T16:21:27.526Z,99005.06
2022-08-28T16:24:31.511Z,98981.00
2022-08-28T16:27:35.644Z,98965.56
2022-08-28T16:30:43.934Z,98951.56
2022-08-28T16:33:47.443Z,98940.78
2022-08-28T16:36:51.717Z,98928.00
2022-08-28T16:39:54.890Z,98919.59
2022-08-28T16:43:02.366Z,98918.69
2022-08-28T16:46:09.662Z,98902.50
2022-08-28T16:49:13.264Z,98923.53
2022-08-28T16:52:16.763Z,98932.00
2022-08-28T16:55:21.303Z,98914.47
2022-08-28T16:58:26.895Z,98906.31
2022-08-28T17:01:29.836Z,98897.59
2022-08-28T17:04:34.241Z,98878.34
2022-08-28T17:07:37.290Z,98868.53
2022-08-28T17:10:41.909Z,98850.44
2022-08-28T17:13:48.767Z,98790.50
2022-08-28T17:16:54.424Z,98784.00
2022-08-28T17:20:01.242Z,98825.59
2022-08-28T17:23:05.213Z,98849.38
2022-08-28T17:26:10.548Z,98866.59
2022-08-28T17:29:22.455Z,98886.16
2022-08-28T17:32:27.673Z,98899.38
2022-08-28T17:35:33.197Z,98898.75
2022-08-28T17:38:45.075Z,98885.63
2022-08-28T17:41:49.150Z,98858.81
2022-08-28T17:44:53.766Z,98852.59
2022-08-28T17:47:58.250Z,98868.97
2022-08-28T17:51:03.508Z,98867.56
2022-08-28T17:54:07.098Z,98858.63
2022-08-28T17:57:11.940Z,98883.00
2022-08-28T18:00:18.415Z,98897.75
2022-08-28T18:03:23.058Z,98904.06
2022-08-28T18:06:25.965Z,98911.19
2022-08-28T18:09:28.883Z,98906.59
2022-08-28T18:12:32.878Z,98887.78
2022-08-28T18:15:41.820Z,98893.94
2022-08-28T18:18:47.511Z,98881.84
2022-08-28T18:21:53.279Z,98885.16
2022-08-28T18:24:57.212Z,98893.94
2022-08-28T18:28:00.454Z,98877.38
2022-08-28T18:31:06.976Z,98873.91
2022-08-28T18:34:12.116Z,98870.47
2022-08-28T18:37:16.827Z,98883.41
2022-08-28T18:40:37.302Z,98882.38
2022-08-28T18:43:49.056Z,98886.22
2022-08-28T18:46:54.866Z,98909.03
2022-08-28T18:49:58.392Z,98920.00
2022-08-28T18:53:02.742Z,98926.19
2022-08-28T18:56:06.510Z,98935.34
2022-08-28T18:59:10.376Z,98948.53
2022-08-28T19:02:18.149Z,98925.81
2022-08-28T19:05:23.345Z,98923.00
2022-08-28T19:08:27.161Z,98921.03
2022-08-28T19:11:31.948Z,98931.69
2022-08-28T19:14:40.197Z,98944.59
2022-08-28T19:17:55.608Z,98940.03
2022-08-28T19:21:06.030Z,98929.47
2022-08-28T19:24:09.636Z,98948.38
2022-08-28T19:27:13.900Z,98941.59
2022-08-28T19:30:18.322Z,98936.16
2022-08-28T19:33:28.329Z,98932.78
2022-08-28T19:36:33.750Z,98925.75
2022-08-28T19:39:37.069Z,98915.94
2022-08-28T19:42:39.935Z,98913.88
2022-08-28T19:45:44.945Z,98922.38
2022-08-28T19:48:49.471Z,98926.41
2022-08-28T19:51:55.402Z,98931.44
2022-08-28T19:54:58.248Z,98928.63
2022-08-28T19:58:04.164Z,98944.50
2022-08-28T20:01:07.197Z,98938.59
2022-08-28T20:04:17.553Z,98938.59
2022-08-28T20:07:20.940Z,98931.38
2022-08-28T20:10:25.187Z,98939.72
2022-08-28T20:13:28.042Z,98937.38
2022-08-28T20:16:31.041Z,98944.81
2022-08-28T20:19:39.197Z,98943.22
2022-08-28T20:22:42.509Z,98951.59
2022-08-28T20:25:47.583Z,98951.22
2022-08-28T20:28:52.667Z,98945.50
2022-08-28T20:31:55.562Z,98953.28
2022-08-28T20:34:59.915Z,98946.03
2022-08-28T20:38:03.296Z,98958.91
2022-08-28T20:41:06.932Z,98962.16
2022-08-28T20:44:12.773Z,98966.75
2022-08-28T20:47:18.863Z,98969.47
2022-08-28T20:50:23.509Z,98974.63
2022-08-28T20:53:37.397Z,98982.81
2022-08-28T20:56:40.842Z,98985.63
2022-08-28T20:59:44.712Z,98991.66
2022-08-28T21:02:47.678Z,99003.22
2022-08-28T21:05:53.113Z,99008.59
2022-08-28T21:08:56.578Z,99006.22
2022-08-28T21:12:05.577Z,99002.22
2022-08-28T21:15:18.841Z,99003.09
2022-08-28T21:18:31.102Z,99005.97
2022-08-28T21:21:38.151Z,99011.69
2022-08-28T21:24:40.970Z,98996.22
2022-08-28T21:27:43.907Z,98983.56
2022-08-28T21:30:46.829Z,98996.69
2022-08-28T21:33:49.674Z,98992.25
2022-08-28T21:36:54.336Z,98995.97
2022-08-28T21:39:57.303Z,98998.50
2022-08-28T21:43:00.148Z,98995.78
2022-08-28T21:46:04.379Z,98991.72
2022-08-28T21:49:09.919Z,98993.81
2022-08-28T21:52:19.455Z,98990.44
2022-08-28T21:55:22.415Z,98985.13
2022-08-28T21:58:25.234Z,98983.50
2022-08-28T22:01:28.064Z,98979.56
2022-08-28T22:04:31.204Z,98987.38
2022-08-28T22:07:35.347Z,98976.50
2022-08-28T22:10:40.458Z,98970.75
2022-08-28T22:13:43.549Z,98958.88
2022-08-28T22:16:46.619Z,98965.97
2022-08-28T22:19:49.555Z,98967.25
2022-08-28T22:23:11.117Z,98967.53
2022-08-28T22:26:15.163Z,98963.47
2022-08-28T22:29:17.992Z,98960.00
2022-08-28T22:32:25.527Z,98958.88
2022-08-28T22:35:28.528Z,98960.00
2022-08-28T22:38:32.900Z,98962.06
2022-08-28T22:41:37.573Z,98969.63
2022-08-28T22:44:40.462Z,98960.41
2022-08-28T22:47:43.546Z,98968.06
2022-08-28T22:50:47.428Z,98969.34
2022-08-28T22:53:54.442Z,98982.63
2022-08-28T22:56:57.195Z,98990.06
2022-08-28T23:00:03.175Z,98990.88
2022-08-28T23:03:06.789Z,98987.31
2022-08-28T23:06:09.691Z,98977.69
2022-08-28T23:09:13.821Z,98977.56
2022-08-28T23:12:16.737Z,98995.19
2022-08-28T23:15:21.620Z,98991.50
2022-08-28T23:18:24.404Z,99009.84
2022-08-28T23:21:28.544Z,99002.50
2022-08-28T23:24:32.766Z,99000.34
2022-08-28T23:27:36.786Z,99003.13
2022-08-28T23:30:43.980Z,99002.59
2022-08-28T23:33:51.228Z,99006.56
2022-08-28T23:36:54.422Z,99011.38
2022-08-28T23:39:59.353Z,99022.31
2022-08-28T23:43:04.263Z,99019.38
2022-08-28T23:46:07.464Z,99020.69
2022-08-28T23:49:10.625Z,99037.13
2022-08-28T23:52:13.419Z,99041.72
2022-08-28T23:55:18.325Z,99049.00
2022-08-28T23:58:22.450Z,99050.25
